Time;durP1;ratioP1;P1;durP2;ratioP2;P2;SDS_P1;SDS_P2;PMS_P1;PMS_P2;Temp;Humidity;BMP_temperature;BMP_pressure;BME280_temperature;BME280_humidity;BME280_pressure;Samples;Min_cycle;Max_cycle;Signal;HPM_P1;HPM_P2
2023/08/14 00:01:13;;;;;;;0.60;0.55;;;;;;;21.61;46.10;100017.41;5011408;28;20489;-84
2023/08/14 00:03:38;;;;;;;2.00;1.02;;;;;;;21.54;46.40;99984.69;5011171;28;20029;-84
2023/08/14 00:06:03;;;;;;;1.85;0.93;;;;;;;21.72;46.43;100006.97;5009926;28;20034;-83
2023/08/14 00:08:29;;;;;;;1.52;1.38;;;;;;;21.66;45.56;99983.16;5011376;28;20515;-83
2023/08/14 00:10:55;;;;;;;4.97;1.40;;;;;;;21.35;46.58;99970.53;5010324;28;20103;-83
2023/08/14 00:13:21;;;;;;;1.33;1.23;;;;;;;21.53;46.19;99995.50;5011219;28;20041;-83
2023/08/14 00:15:48;;;;;;;0.93;0.80;;;;;;;21.45;46.35;99990.53;5010596;28;20033;-83
2023/08/14 00:18:13;;;;;;;0.93;0.70;;;;;;;21.49;46.03;99993.91;5010705;28;20033;-83
2023/08/14 00:20:39;;;;;;;1.60;1.23;;;;;;;21.58;45.75;100007.72;5011083;28;20105;-84
2023/08/14 00:23:04;;;;;;;0.98;0.57;;;;;;;21.39;46.11;99964.91;5011236;28;20053;-83
2023/08/14 00:25:30;;;;;;;0.95;0.65;;;;;;;21.74;46.22;99996.13;5011070;28;20432;-83
2023/08/14 00:27:55;;;;;;;1.25;1.15;;;;;;;21.70;46.41;99998.09;5011447;28;20475;-83
2023/08/14 00:30:21;;;;;;;3.00;1.90;;;;;;;21.63;46.33;100005.66;5010874;28;20139;-83
2023/08/14 00:32:46;;;;;;;1.23;0.93;;;;;;;21.42;46.71;99970.09;5010326;28;20116;-82
2023/08/14 00:35:12;;;;;;;2.30;1.45;;;;;;;21.53;47.37;99991.00;5010658;28;20064;-82
2023/08/14 00:37:45;;;;;;;2.05;1.20;;;;;;;21.62;47.60;99990.47;5010031;28;20034;-83
2023/08/14 00:40:12;;;;;;;1.77;1.65;;;;;;;21.31;47.60;99955.56;5010862;28;20116;-83
2023/08/14 00:42:39;;;;;;;2.38;1.00;;;;;;;21.34;47.41;99960.75;5009190;28;20393;-83
2023/08/14 00:45:06;;;;;;;2.50;1.45;;;;;;;21.54;48.24;99991.88;5011088;28;20439;-82
2023/08/14 00:47:34;;;;;;;0.90;0.63;;;;;;;21.46;48.34;99970.81;5010092;28;20096;-83
2023/08/14 00:50:00;;;;;;;7.78;1.05;;;;;;;21.49;48.40;99978.72;5009231;28;20063;-83
2023/08/14 00:52:27;;;;;;;1.65;1.13;;;;;;;21.35;48.80;99979.47;5010200;28;20092;-85
2023/08/14 00:54:53;;;;;;;0.70;0.70;;;;;;;21.44;47.92;99953.91;5010746;28;20113;-83
2023/08/14 00:57:19;;;;;;;0.82;0.57;;;;;;;21.54;48.01;99978.47;5010433;28;20060;-84
2023/08/14 00:59:46;;;;;;;1.55;0.98;;;;;;;21.42;47.94;99948.63;5008903;28;20029;-85
2023/08/14 01:02:12;;;;;;;0.63;0.52;;;;;;;21.54;48.43;99981.16;5010509;28;20366;-84
2023/08/14 01:04:38;;;;;;;0.75;0.60;;;;;;;21.48;48.85;99973.41;5010537;28;20080;-84
2023/08/14 01:07:03;;;;;;;1.13;0.82;;;;;;;21.51;49.13;99982.19;5010245;28;20022;-85
2023/08/14 01:09:29;;;;;;;4.03;0.77;;;;;;;21.39;49.60;99996.25;5009803;28;20041;-83
2023/08/14 01:12:14;;;;;;;1.27;1.00;;;;;;;21.17;49.94;99954.50;5010561;28;20433;-83
2023/08/14 01:14:42;;;;;;;1.95;1.52;;;;;;;21.25;50.18;99979.06;5010520;28;20038;-82
2023/08/14 01:17:13;;;;;;;1.05;0.85;;;;;;;21.32;50.27;99976.06;5010677;28;20440;-84
2023/08/14 01:19:41;;;;;;;0.60;0.60;;;;;;;21.60;49.53;99991.53;5010051;28;20121;-83
2023/08/14 01:22:22;;;;;;;1.48;0.80;;;;;;;21.26;50.48;99994.22;5009103;28;20463;-83
2023/08/14 01:24:59;;;;;;;0.45;0.45;;;;;;;21.00;51.58;99994.78;5008311;28;20109;-81
2023/08/14 01:27:26;;;;;;;1.10;1.00;;;;;;;20.70;51.50;99980.25;5010540;28;20026;-81
2023/08/14 01:29:59;;;;;;;2.65;0.73;;;;;;;21.07;51.10;100001.56;5009472;28;20026;-82
2023/08/14 01:32:25;;;;;;;1.73;1.05;;;;;;;21.05;51.29;100000.75;5010215;28;20029;-81
2023/08/14 01:34:53;;;;;;;1.00;0.90;;;;;;;20.98;51.14;99994.00;5009299;28;20030;-81
2023/08/14 01:37:25;;;;;;;3.35;1.35;;;;;;;21.02;51.27;100006.28;5010286;28;20121;-81
2023/08/14 01:40:03;;;;;;;0.65;0.65;;;;;;;20.99;50.94;100001.09;5010443;28;20034;-81
2023/08/14 01:42:32;;;;;;;0.93;0.65;;;;;;;20.78;50.85;99977.16;5010604;28;20030;-81
2023/08/14 01:45:07;;;;;;;1.55;1.45;;;;;;;21.05;49.97;99995.41;5009519;28;20029;-81
2023/08/14 01:47:34;;;;;;;1.25;0.75;;;;;;;21.03;50.17;99994.63;5010116;28;20058;-81
2023/08/14 01:50:00;;;;;;;4.00;0.90;;;;;;;21.07;50.36;99991.69;5009898;28;20069;-81
2023/08/14 01:52:26;;;;;;;1.13;0.85;;;;;;;21.19;50.60;100011.59;5010220;28;20038;-82
2023/08/14 01:54:52;;;;;;;3.22;0.70;;;;;;;21.07;50.65;99983.66;5011586;28;20022;-82
2023/08/14 01:57:17;;;;;;;1.08;0.88;;;;;;;21.20;50.68;100012.50;5014038;28;20088;-82
2023/08/14 01:59:45;;;;;;;1.63;1.00;;;;;;;21.04;50.43;99988.31;5013921;28;20120;-82
2023/08/14 02:02:12;;;;;;;0.52;0.50;;;;;;;20.90;51.22;99997.97;5013593;28;20061;-82
2023/08/14 02:04:38;;;;;;;1.85;1.00;;;;;;;20.91;51.72;99994.34;5013627;28;20045;-82
2023/08/14 02:07:05;;;;;;;0.90;0.90;;;;;;;20.77;51.32;99970.06;5013035;28;20052;-82
2023/08/14 02:09:32;;;;;;;0.82;0.70;;;;;;;20.91;51.39;100009.53;5012298;28;20411;-82
2023/08/14 02:11:59;;;;;;;4.78;1.52;;;;;;;20.61;51.50;99969.13;5012188;28;20030;-84
2023/08/14 02:14:24;;;;;;;0.75;0.50;;;;;;;20.54;51.74;99964.06;5013466;28;20030;-84
2023/08/14 02:16:49;;;;;;;1.92;1.00;;;;;;;20.60;51.69;99988.81;5013248;28;20092;-85
2023/08/14 02:19:15;;;;;;;0.85;0.77;;;;;;;20.33;52.19;99959.81;5013265;28;20092;-86
2023/08/14 02:21:40;;;;;;;2.75;1.58;;;;;;;20.29;53.24;99964.44;5013164;28;20042;-84
2023/08/14 02:24:07;;;;;;;1.65;0.70;;;;;;;20.43;53.20;99979.81;5013488;28;20030;-84
2023/08/14 02:26:32;;;;;;;0.93;0.82;;;;;;;20.46;53.51;99998.41;5013852;28;20139;-84
2023/08/14 02:28:58;;;;;;;1.27;1.15;;;;;;;20.34;52.97;99978.50;5011412;28;20543;-85
2023/08/14 02:31:26;;;;;;;6.82;1.05;;;;;;;20.17;54.08;99975.78;5012978;28;20168;-84
2023/08/14 02:34:00;;;;;;;1.88;1.40;;;;;;;20.27;54.14;100011.03;5012960;28;20042;-85
2023/08/14 02:36:26;;;;;;;2.08;1.15;;;;;;;20.09;53.96;99980.66;5013044;28;20096;-85
2023/08/14 02:38:53;;;;;;;1.08;0.50;;;;;;;19.74;55.30;99988.56;5012536;28;20026;-84
2023/08/14 02:41:18;;;;;;;3.53;1.85;;;;;;;19.44;55.00;99946.31;5012560;28;20554;-84
2023/08/14 02:43:43;;;;;;;0.68;0.52;;;;;;;19.57;54.58;99951.94;5011989;28;20034;-84
2023/08/14 02:46:09;;;;;;;1.25;0.90;;;;;;;19.99;55.03;99985.63;5013317;28;20034;-83
2023/08/14 02:48:34;;;;;;;1.70;1.33;;;;;;;19.95;55.19;99968.81;5011254;28;20056;-83
2023/08/14 02:51:00;;;;;;;1.73;0.95;;;;;;;19.98;54.64;100010.66;5012644;28;20107;-82
2023/08/14 02:53:26;;;;;;;1.20;0.75;;;;;;;19.83;54.40;99998.88;5011423;28;20132;-82
2023/08/14 02:55:52;;;;;;;2.55;1.10;;;;;;;19.78;54.38;99977.69;5012641;28;20030;-82
2023/08/14 02:58:18;;;;;;;2.05;1.20;;;;;;;19.80;54.41;99978.50;5012622;28;20407;-83
2023/08/14 03:00:46;;;;;;;1.17;0.82;;;;;;;19.88;54.44;100004.91;5012519;28;20535;-84
2023/08/14 03:03:12;;;;;;;0.93;0.63;;;;;;;19.83;54.34;99970.31;5011785;28;20137;-85
2023/08/14 03:05:38;;;;;;;1.80;1.50;;;;;;;20.02;53.93;100010.44;4999341;28;20121;-85
2023/08/14 03:08:04;;;;;;;1.88;1.75;;;;;;;19.58;54.53;99959.03;5010751;28;20026;-86
2023/08/14 03:10:30;;;;;;;1.10;1.00;;;;;;;19.64;54.47;99972.09;5011542;28;20044;-86
2023/08/14 03:12:56;;;;;;;1.20;1.08;;;;;;;19.78;53.61;99995.56;5012579;28;20034;-86
2023/08/14 03:15:22;;;;;;;1.92;1.48;;;;;;;19.50;54.70;99987.00;5012022;28;20038;-85
2023/08/14 03:17:47;;;;;;;1.48;1.27;;;;;;;19.28;55.11;99963.09;5012436;28;20116;-86
2023/08/14 03:20:13;;;;;;;1.55;0.95;;;;;;;19.43;55.53;99982.00;5012049;28;20535;-86
2023/08/14 03:22:39;;;;;;;0.77;0.77;;;;;;;19.39;55.64;99983.97;5008441;28;20049;-87
2023/08/14 03:25:05;;;;;;;1.15;0.98;;;;;;;19.60;55.49;100002.63;5011005;28;20041;-85
2023/08/14 03:27:30;;;;;;;2.20;1.58;;;;;;;19.62;55.41;100008.78;5011609;28;20041;-85
2023/08/14 03:29:56;;;;;;;1.73;0.80;;;;;;;19.57;56.07;100019.72;5011172;28;20424;-85
2023/08/14 03:32:21;;;;;;;3.03;2.05;;;;;;;19.40;55.58;99972.34;5011205;28;20044;-85
2023/08/14 03:34:46;;;;;;;2.00;1.40;;;;;;;19.36;55.64;99964.53;5010797;28;20518;-84
2023/08/14 03:37:12;;;;;;;1.98;1.85;;;;;;;19.50;55.84;100008.41;5010897;28;20107;-83
2023/08/14 03:39:37;;;;;;;1.30;1.02;;;;;;;19.19;56.20;99963.50;5010854;28;20033;-84
2023/08/14 03:42:03;;;;;;;1.92;1.73;;;;;;;19.33;55.98;99992.28;5010594;28;20496;-85
2023/08/14 03:44:28;;;;;;;3.47;1.88;;;;;;;19.42;56.50;100005.22;5010586;28;20022;-85
2023/08/14 03:46:54;;;;;;;2.28;0.88;;;;;;;19.13;56.94;99996.75;5010675;28;20029;-84
2023/08/14 03:49:19;;;;;;;2.10;1.20;;;;;;;19.26;56.04;100015.78;5011166;28;20036;-85
2023/08/14 03:51:45;;;;;;;2.10;1.27;;;;;;;18.96;56.64;99993.97;5011275;28;20034;-87
2023/08/14 03:54:10;;;;;;;2.08;1.63;;;;;;;19.08;56.81;100014.81;5011484;28;20407;-85
2023/08/14 03:56:36;;;;;;;3.13;1.75;;;;;;;19.09;56.98;100015.66;5010807;28;20106;-86
2023/08/14 03:59:01;;;;;;;3.38;1.48;;;;;;;19.19;56.60;100018.81;5011404;28;20021;-86
2023/08/14 04:01:27;;;;;;;1.88;1.15;;;;;;;19.13;56.83;99977.16;5011546;28;20034;-85
2023/08/14 04:03:52;;;;;;;1.40;1.08;;;;;;;19.20;57.16;99964.38;5010878;28;20354;-85
2023/08/14 04:06:19;;;;;;;17.08;1.70;;;;;;;19.58;56.76;99999.16;5011461;28;20045;-86
2023/08/14 04:08:44;;;;;;;2.80;1.50;;;;;;;19.44;56.90;99981.94;5010681;28;20033;-86
2023/08/14 04:11:11;;;;;;;1.25;1.00;;;;;;;19.59;56.34;100000.91;5011752;28;20032;-86
2023/08/14 04:13:37;;;;;;;2.13;1.92;;;;;;;19.47;55.79;99980.94;5011466;28;20062;-87
2023/08/14 04:16:03;;;;;;;4.10;0.90;;;;;;;19.67;56.76;100009.44;5009710;28;20510;-84
2023/08/14 04:18:31;;;;;;;2.35;1.70;;;;;;;19.81;56.70;100023.03;5010275;28;20427;-85
2023/08/14 04:20:57;;;;;;;2.50;1.08;;;;;;;19.93;56.72;100010.03;5009550;28;20037;-85
2023/08/14 04:23:24;;;;;;;15.10;1.60;;;;;;;19.98;56.91;100016.88;5010799;28;20424;-86
2023/08/14 04:25:50;;;;;;;2.83;1.60;;;;;;;20.27;56.71;100045.84;5011204;28;20117;-86
2023/08/14 04:28:16;;;;;;;2.35;1.63;;;;;;;20.32;56.07;100030.41;5011089;28;20455;-86
2023/08/14 04:30:42;;;;;;;5.70;1.52;;;;;;;20.28;56.40;100010.97;5006195;28;20057;-85
2023/08/14 04:33:07;;;;;;;1.58;1.05;;;;;;;20.59;56.19;100044.22;5010297;28;20506;-85
2023/08/14 04:35:33;;;;;;;1.10;0.90;;;;;;;20.51;55.91;100025.88;5010225;28;20029;-85
2023/08/14 04:37:58;;;;;;;7.63;1.70;;;;;;;20.78;55.39;100054.91;5010424;28;20026;-85
2023/08/14 04:40:24;;;;;;;1.15;0.85;;;;;;;20.93;54.94;100042.53;5010141;28;20065;-85
2023/08/14 04:42:49;;;;;;;1.35;1.10;;;;;;;20.87;55.04;100034.81;5008638;28;20496;-85
2023/08/14 04:45:15;;;;;;;1.35;0.82;;;;;;;20.99;54.35;100052.03;5005637;28;20060;-83
2023/08/14 04:47:40;;;;;;;1.85;0.73;;;;;;;21.03;54.38;100041.06;5010214;28;20029;-81
2023/08/14 04:50:06;;;;;;;1.52;1.20;;;;;;;21.31;54.57;100062.88;5009738;28;20030;-87
2023/08/14 04:52:31;;;;;;;3.80;1.08;;;;;;;21.31;54.22;100041.41;5010612;28;20088;-87
2023/08/14 04:54:57;;;;;;;1.90;1.60;;;;;;;21.36;53.40;100016.03;5008963;28;20061;-86
2023/08/14 04:57:22;;;;;;;2.30;1.20;;;;;;;21.66;52.88;100044.00;5009369;28;20503;-88
2023/08/14 04:59:48;;;;;;;1.65;1.27;;;;;;;21.87;52.57;100039.25;5009950;28;20476;-87
2023/08/14 05:02:13;;;;;;;2.13;1.25;;;;;;;21.95;52.18;100058.47;5000128;28;20393;-88
2023/08/14 05:04:39;;;;;;;1.20;0.93;;;;;;;22.12;51.97;100061.09;5009158;28;20044;-88
2023/08/14 05:07:04;;;;;;;2.60;1.30;;;;;;;22.20;51.52;100047.22;5009255;28;20030;-88
2023/08/14 05:09:30;;;;;;;1.10;0.70;;;;;;;22.34;51.55;100047.31;5008977;28;20034;-88
2023/08/14 05:11:57;;;;;;;1.67;1.33;;;;;;;22.62;51.21;100072.56;5008368;28;20526;-86
2023/08/14 05:14:23;;;;;;;1.35;0.98;;;;;;;22.47;51.20;100027.78;5007561;28;20415;-85
2023/08/14 05:16:48;;;;;;;1.80;1.13;;;;;;;22.97;50.55;100066.00;5009946;28;20026;-88
2023/08/14 05:19:14;;;;;;;2.03;1.05;;;;;;;23.01;50.57;100038.84;5008497;28;20427;-87
2023/08/14 05:21:39;;;;;;;1.20;0.90;;;;;;;23.20;50.27;100046.69;5008963;28;20041;-86
2023/08/14 05:24:05;;;;;;;0.60;0.45;;;;;;;23.44;49.11;100043.41;5004169;28;20036;-87
2023/08/14 05:26:30;;;;;;;6.57;2.38;;;;;;;23.71;49.35;100056.97;5008726;28;20044;-88
2023/08/14 05:28:56;;;;;;;4.05;2.70;;;;;;;23.64;47.83;100017.91;5000814;28;20038;-86
2023/08/14 05:31:21;;;;;;;7.30;4.18;;;;;;;23.90;47.83;100056.66;4997784;28;20480;-87
2023/08/14 05:33:47;;;;;;;13.10;5.28;;;;;;;24.23;46.95;100065.31;5006231;28;20065;-87
2023/08/14 05:36:12;;;;;;;10.65;8.80;;;;;;;24.09;46.48;100048.22;4997229;28;20025;-86
2023/08/14 05:38:38;;;;;;;20.50;10.43;;;;;;;24.34;46.01;100037.66;4999570;28;20026;-88
2023/08/14 05:41:03;;;;;;;8.88;6.03;;;;;;;24.54;46.34;100053.34;5006934;28;20045;-89
2023/08/14 05:43:29;;;;;;;5.63;2.70;;;;;;;24.69;45.97;100066.81;5012352;28;20480;-88
2023/08/14 05:45:54;;;;;;;2.08;1.35;;;;;;;24.60;45.85;100055.66;5008500;28;20056;-87
2023/08/14 05:48:22;;;;;;;2.80;1.50;;;;;;;24.75;45.99;100077.19;4998952;28;20072;-87
2023/08/14 05:50:50;;;;;;;1.95;1.27;;;;;;;24.88;46.94;100069.09;5012074;28;20030;-88
2023/08/14 05:53:16;;;;;;;6.05;1.80;;;;;;;24.90;46.61;100069.84;5010892;28;20034;-87
2023/08/14 05:55:42;;;;;;;7.35;3.28;;;;;;;24.95;45.99;100073.13;5000319;28;20526;-87
2023/08/14 05:58:07;;;;;;;4.20;1.98;;;;;;;24.73;46.91;100038.63;5011179;28;20033;-88
2023/08/14 06:00:35;;;;;;;2.20;1.80;;;;;;;25.02;46.18;100074.41;4993886;28;20026;-87
2023/08/14 06:03:01;;;;;;;2.90;1.38;;;;;;;25.07;46.27;100039.00;5003417;28;20053;-87
2023/08/14 06:05:27;;;;;;;2.65;2.13;;;;;;;25.44;45.82;100058.03;5000976;28;20040;-92
2023/08/14 06:07:54;;;;;;;2.15;1.08;;;;;;;25.60;44.84;100057.81;5008828;28;20034;-91
2023/08/14 06:10:20;;;;;;;4.07;2.28;;;;;;;25.85;44.89;100078.50;5007431;28;20030;-90
2023/08/14 06:12:45;;;;;;;5.00;3.20;;;;;;;26.09;43.31;100074.03;5021046;28;20071;-89
2023/08/14 06:15:12;;;;;;;8.43;2.88;;;;;;;26.34;42.71;100055.13;4993965;28;20026;-89
2023/08/14 06:17:39;;;;;;;3.45;1.35;;;;;;;26.39;41.75;100071.84;5004419;28;20041;-90
2023/08/14 06:20:05;;;;;;;4.40;1.42;;;;;;;26.39;41.42;100050.22;5010313;28;20033;-86
2023/08/14 06:22:31;;;;;;;3.47;1.70;;;;;;;26.75;41.44;100080.88;4993818;28;20511;-88
2023/08/14 06:24:56;;;;;;;8.75;2.90;;;;;;;26.89;40.46;100052.75;5008220;28;20038;-87
2023/08/14 06:27:22;;;;;;;3.42;1.85;;;;;;;27.30;39.53;100067.59;4996842;28;20084;-87
2023/08/14 06:29:48;;;;;;;2.55;1.52;;;;;;;27.69;39.30;100076.25;5011909;28;20088;-87
2023/08/14 06:32:13;;;;;;;3.00;1.35;;;;;;;27.49;37.94;100058.88;5007262;28;20037;-84
2023/08/14 06:34:39;;;;;;;2.13;0.95;;;;;;;27.51;37.88;100078.59;5008103;28;20041;-87
2023/08/14 06:37:04;;;;;;;1.48;1.30;;;;;;;27.60;38.26;100077.00;4996251;28;20062;-86
2023/08/14 06:39:30;;;;;;;2.13;1.52;;;;;;;27.71;38.74;100092.38;4992013;28;20060;-85
2023/08/14 06:41:55;;;;;;;10.05;2.00;;;;;;;27.66;38.09;100050.25;4991296;28;20038;-86
2023/08/14 06:44:21;;;;;;;1.30;0.90;;;;;;;27.77;38.46;100073.78;4991847;28;20022;-85
2023/08/14 06:46:47;;;;;;;2.33;1.95;;;;;;;27.71;38.43;100086.97;4991978;28;20522;-84
2023/08/14 06:49:12;;;;;;;3.35;2.10;;;;;;;27.72;38.39;100096.84;4993554;28;20447;-88
2023/08/14 06:51:38;;;;;;;2.85;1.17;;;;;;;27.72;38.61;100076.00;4993920;28;20030;-86
2023/08/14 06:54:05;;;;;;;1.75;1.35;;;;;;;27.83;38.65;100084.13;4991245;28;20116;-86
2023/08/14 06:56:30;;;;;;;1.48;1.25;;;;;;;28.12;38.80;100097.19;4991272;28;20041;-85
2023/08/14 06:58:56;;;;;;;2.70;0.98;;;;;;;28.40;38.13;100103.88;4991101;28;20724;-86
2023/08/14 07:01:22;;;;;;;1.25;1.08;;;;;;;28.45;37.93;100064.66;4994520;28;20100;-86
2023/08/14 07:03:48;;;;;;;1.88;1.17;;;;;;;28.40;37.53;100093.03;4991964;28;20507;-86
2023/08/14 07:06:13;;;;;;;1.50;1.05;;;;;;;28.74;37.82;100070.38;4993328;28;20093;-86
2023/08/14 07:08:39;;;;;;;2.30;1.00;;;;;;;29.14;37.59;100087.81;4999603;28;20026;-87
2023/08/14 07:11:04;;;;;;;1.45;0.68;;;;;;;29.28;36.52;100087.47;4991008;28;20113;-86
2023/08/14 07:13:33;;;;;;;1.13;0.93;;;;;;;29.57;36.08;100068.59;4990929;28;20026;-85
2023/08/14 07:15:58;;;;;;;1.70;1.00;;;;;;;29.84;35.57;100072.59;4991292;28;20105;-87
2023/08/14 07:18:24;;;;;;;1.58;0.82;;;;;;;30.33;34.76;100094.47;4991238;28;20026;-86
2023/08/14 07:20:49;;;;;;;3.55;1.50;;;;;;;30.33;34.11;100084.44;4990416;28;20018;-85
2023/08/14 07:23:20;;;;;;;3.70;1.10;;;;;;;30.55;35.22;100071.59;4991519;28;20145;-86
2023/08/14 07:25:46;;;;;;;1.27;0.80;;;;;;;30.88;33.20;100088.50;4991022;28;20469;-87
2023/08/14 07:28:12;;;;;;;1.48;1.38;;;;;;;30.69;33.38;100070.31;4991222;28;20417;-86
2023/08/14 07:30:38;;;;;;;1.80;1.17;;;;;;;30.55;33.95;100070.75;4992512;28;20038;-87
2023/08/14 07:33:07;;;;;;;2.15;1.27;;;;;;;30.75;32.71;100050.66;4991579;28;20037;-86
2023/08/14 07:35:33;;;;;;;1.70;1.20;;;;;;;30.74;34.65;100016.31;4991948;28;20517;-86
2023/08/14 07:37:59;;;;;;;2.15;1.33;;;;;;;30.57;33.94;100036.06;4991204;28;20062;-87
2023/08/14 07:40:25;;;;;;;2.15;1.48;;;;;;;30.57;33.42;100063.28;4992631;28;20141;-86
2023/08/14 07:42:50;;;;;;;2.17;0.98;;;;;;;31.20;31.69;100069.13;4991517;28;20368;-86
2023/08/14 07:45:16;;;;;;;1.60;0.93;;;;;;;31.59;30.79;100055.38;4991799;28;20049;-83
2023/08/14 07:47:42;;;;;;;0.88;0.85;;;;;;;31.12;31.73;100074.44;4990168;28;20031;-87
2023/08/14 07:50:08;;;;;;;1.23;0.77;;;;;;;31.16;31.97;100064.97;4990990;28;20413;-85
2023/08/14 07:52:34;;;;;;;1.40;0.50;;;;;;;31.55;30.28;100053.97;4990194;28;20037;-89
2023/08/14 07:55:02;;;;;;;3.75;1.08;;;;;;;31.48;30.34;100035.59;4990538;28;20031;-90
2023/08/14 07:57:28;;;;;;;1.48;1.30;;;;;;;30.94;31.35;100030.75;4991049;28;20068;-88
2023/08/14 07:59:53;;;;;;;1.00;0.70;;;;;;;30.74;31.16;100059.88;4990314;28;20443;-87
2023/08/14 08:02:20;;;;;;;0.90;0.70;;;;;;;30.93;30.33;100022.72;4990751;28;20038;-89
2023/08/14 08:04:45;;;;;;;1.25;0.80;;;;;;;31.51;30.38;100041.63;4990088;28;20038;-89
2023/08/14 08:07:11;;;;;;;6.75;1.73;;;;;;;31.36;31.81;100019.44;4990773;28;20416;-87
2023/08/14 08:09:36;;;;;;;2.90;1.58;;;;;;;31.67;29.84;100037.41;4990758;28;20041;-88
2023/08/14 08:12:02;;;;;;;1.20;0.98;;;;;;;31.55;30.76;100018.53;4990999;28;20541;-90
2023/08/14 08:14:27;;;;;;;0.85;0.60;;;;;;;32.11;29.08;100048.53;5005830;28;20030;-87
2023/08/14 08:16:53;;;;;;;1.58;1.02;;;;;;;31.74;30.19;100025.75;4990726;28;20033;-89
2023/08/14 08:19:18;;;;;;;0.85;0.77;;;;;;;32.11;31.54;100041.19;5006068;28;20045;-86
2023/08/14 08:21:45;;;;;;;2.45;1.30;;;;;;;31.97;29.23;100028.06;4989886;28;20032;-90
2023/08/14 08:24:11;;;;;;;3.85;1.88;;;;;;;32.14;29.37;100029.13;4989010;28;20030;-91
2023/08/14 08:26:37;;;;;;;1.83;1.60;;;;;;;31.63;29.36;100008.75;5004598;28;20514;-90
2023/08/14 08:29:03;;;;;;;1.92;0.95;;;;;;;31.58;29.81;100028.28;4990544;28;20148;-87
2023/08/14 08:31:29;;;;;;;1.30;0.90;;;;;;;31.11;31.30;100015.53;4990011;28;20046;-89
2023/08/14 08:33:54;;;;;;;0.93;0.70;;;;;;;30.80;31.23;100034.78;4991071;28;20088;-89
2023/08/14 08:36:20;;;;;;;1.58;0.90;;;;;;;30.48;31.18;100016.03;4989903;28;20483;-88
2023/08/14 08:38:47;;;;;;;2.92;0.90;;;;;;;30.57;32.36;100036.06;4990779;28;20045;-89
2023/08/14 08:41:13;;;;;;;1.10;1.00;;;;;;;30.56;30.98;100034.38;4990371;28;20053;-88
2023/08/14 08:43:40;;;;;;;1.02;0.82;;;;;;;30.57;32.14;99997.97;4990421;28;20065;-88
2023/08/14 08:46:10;;;;;;;0.77;0.70;;;;;;;30.47;30.60;100009.72;4990049;28;20061;-88
2023/08/14 08:48:44;;;;;;;0.70;0.70;;;;;;;30.18;31.06;100010.56;5005016;28;20037;-88
2023/08/14 08:51:11;;;;;;;1.88;1.48;;;;;;;30.24;30.77;100009.09;4989738;28;20096;-89
2023/08/14 08:53:37;;;;;;;0.82;0.80;;;;;;;30.23;30.88;100001.97;4989249;28;20112;-90
2023/08/14 08:56:03;;;;;;;2.42;1.10;;;;;;;30.36;30.97;99996.25;4988492;28;20505;-86
2023/08/14 08:58:29;;;;;;;0.98;0.65;;;;;;;30.74;30.32;100001.81;5002825;28;20121;-85
2023/08/14 09:00:55;;;;;;;1.52;1.08;;;;;;;30.70;30.13;99991.22;4989750;28;20494;-87
2023/08/14 09:03:23;;;;;;;6.50;1.65;;;;;;;30.57;29.67;99985.22;4989325;28;20026;-88
2023/08/14 09:05:51;;;;;;;1.60;0.98;;;;;;;30.46;30.04;100032.50;4991474;28;20065;-89
2023/08/14 09:08:17;;;;;;;1.17;0.43;;;;;;;30.59;30.46;100012.31;5004149;28;20046;-91
2023/08/14 09:10:43;;;;;;;1.27;0.93;;;;;;;30.78;30.30;100025.88;4989334;28;20048;-89
2023/08/14 09:13:09;;;;;;;1.38;1.10;;;;;;;30.47;31.73;100025.19;4989173;28;20446;-90
2023/08/14 09:15:44;;;;;;;2.10;1.58;;;;;;;30.28;30.75;99986.06;4999403;28;20440;-92
2023/08/14 09:18:10;;;;;;;1.52;1.27;;;;;;;30.67;30.63;99994.22;4991852;28;20117;-90
2023/08/14 09:21:01;;;;;;;2.33;1.27;;;;;;;30.95;30.76;99982.56;4988781;28;20038;-89
2023/08/14 09:23:27;;;;;;;0.65;0.57;;;;;;;31.19;30.39;100007.47;4990119;28;20050;-91
2023/08/14 09:25:53;;;;;;;1.88;0.65;;;;;;;31.21;28.75;99986.38;5002682;28;20030;-88
2023/08/14 09:28:21;;;;;;;0.55;0.55;;;;;;;31.27;28.87;99982.19;4989502;28;20102;-88
2023/08/14 09:30:48;;;;;;;0.80;0.63;;;;;;;31.10;29.55;99969.38;5013391;28;20423;-88
2023/08/14 09:33:13;;;;;;;2.42;0.85;;;;;;;31.71;29.40;100019.75;4995208;28;20421;-86
2023/08/14 09:35:39;;;;;;;0.80;0.52;;;;;;;31.49;28.72;99989.13;4995439;28;20096;-88
2023/08/14 09:38:05;;;;;;;1.45;0.98;;;;;;;31.82;28.79;100011.34;4989926;28;20069;-85
2023/08/14 09:40:32;;;;;;;1.90;1.02;;;;;;;31.88;28.61;100009.88;4989737;28;20084;-84
2023/08/14 09:42:58;;;;;;;1.58;0.98;;;;;;;31.92;28.50;100014.03;4989097;28;20072;-86
2023/08/14 09:45:27;;;;;;;1.45;1.10;;;;;;;32.10;27.84;100012.22;4990084;28;20559;-85
2023/08/14 09:47:58;;;;;;;1.63;0.95;;;;;;;32.14;28.43;100020.94;4989731;28;20030;-85
2023/08/14 09:50:27;;;;;;;1.25;0.85;;;;;;;32.06;27.73;100007.19;4990084;28;20030;-85
2023/08/14 09:52:56;;;;;;;2.10;1.15;;;;;;;32.33;27.54;100009.00;4989528;28;20064;-87
2023/08/14 09:55:22;;;;;;;2.95;0.95;;;;;;;32.23;28.00;99994.59;4999026;28;20034;-87
2023/08/14 09:57:48;;;;;;;0.82;0.82;;;;;;;32.08;28.26;99996.97;5007390;28;20479;-86
2023/08/14 10:00:14;;;;;;;1.17;0.68;;;;;;;32.04;28.46;100012.78;4996928;28;20135;-87
2023/08/14 10:02:45;;;;;;;1.17;0.68;;;;;;;31.52;29.02;99961.56;4988849;28;20524;-88
2023/08/14 10:05:11;;;;;;;1.23;0.82;;;;;;;31.57;29.14;99970.19;4987647;28;20022;-87
2023/08/14 10:07:38;;;;;;;0.95;0.65;;;;;;;31.92;28.86;99993.06;4989413;28;20031;-85
2023/08/14 10:10:07;;;;;;;1.15;0.70;;;;;;;31.77;28.86;99980.94;4988924;28;20026;-84
2023/08/14 10:12:41;;;;;;;1.50;0.70;;;;;;;31.63;28.72;99971.44;4992375;28;20030;-88
2023/08/14 10:15:11;;;;;;;0.57;0.43;;;;;;;31.67;28.91;99964.66;5003086;28;20117;-88
2023/08/14 10:17:55;;;;;;;1.42;0.93;;;;;;;31.74;28.65;99971.19;5005198;28;20083;-85
2023/08/14 10:20:22;;;;;;;1.67;0.60;;;;;;;31.75;28.49;99940.22;4994885;28;20468;-90
2023/08/14 10:22:52;;;;;;;0.50;0.40;;;;;;;31.90;28.76;99966.94;5007403;28;20054;-86
2023/08/14 10:25:19;;;;;;;2.67;1.33;;;;;;;32.03;29.16;99959.25;4993305;28;20034;-90
2023/08/14 10:27:46;;;;;;;2.35;2.15;;;;;;;32.30;28.20;99979.28;4992283;28;20186;-90
2023/08/14 10:30:12;;;;;;;1.65;0.90;;;;;;;32.24;28.58;99947.16;4992822;28;20026;-89
2023/08/14 10:32:40;;;;;;;1.33;0.63;;;;;;;32.29;28.33;99967.53;4992908;28;20422;-90
2023/08/14 10:35:06;;;;;;;0.68;0.60;;;;;;;32.03;29.39;99958.41;4993909;28;20032;-88
2023/08/14 10:37:45;;;;;;;5.80;1.40;;;;;;;32.26;28.67;99962.38;4992944;28;20030;-83
2023/08/14 10:40:20;;;;;;;3.45;1.75;;;;;;;32.31;29.25;99934.63;5005993;28;20061;-85
2023/08/14 10:42:47;;;;;;;5.63;3.65;;;;;;;32.54;29.19;99939.59;4993075;28;20112;-89
2023/08/14 10:45:17;;;;;;;1.38;1.08;;;;;;;32.59;28.51;99934.50;4998021;28;20038;-86
2023/08/14 10:47:42;;;;;;;1.73;1.23;;;;;;;32.75;29.82;99907.34;4999099;28;20041;-87
2023/08/14 10:50:17;;;;;;;1.75;0.80;;;;;;;32.91;27.61;99922.94;5005121;28;20030;-86
2023/08/14 10:52:52;;;;;;;1.13;0.98;;;;;;;33.09;28.16;99916.53;4988792;28;20716;-88
2023/08/14 10:58:51;;;;;;;;;;;;;;;;;;;;;
2023/08/14 11:01:28;;;;;;;1.70;1.20;;;;;;;33.46;27.48;99864.28;4994270;28;19913;-85
2023/08/14 11:04:26;;;;;;;1.10;0.88;;;;;;;33.09;27.23;99872.81;5011396;28;20054;-88
2023/08/14 11:07:26;;;;;;;5.22;1.80;;;;;;;32.92;27.52;99845.47;4991516;28;20046;-88
2023/08/14 11:10:28;;;;;;;1.65;0.90;;;;;;;33.43;28.39;99940.28;4959423;28;20035;-86
2023/08/14 11:12:55;;;;;;;1.30;0.75;;;;;;;33.12;27.33;99905.28;4938990;29;20566;-86
2023/08/14 11:15:21;;;;;;;3.15;0.75;;;;;;;33.28;27.81;99919.06;4951203;28;20027;-85
2023/08/14 11:17:48;;;;;;;1.45;0.85;;;;;;;33.39;27.29;99914.31;4950947;28;20102;-84
2023/08/14 11:20:14;;;;;;;1.30;0.60;;;;;;;33.28;27.90;99888.16;4962407;28;20155;-84
2023/08/14 11:22:46;;;;;;;2.25;0.95;;;;;;;33.05;27.70;99876.94;4969223;28;20082;-86
2023/08/14 11:25:15;;;;;;;1.45;1.08;;;;;;;32.78;30.29;99887.91;4956773;28;20039;-85
2023/08/14 11:27:41;;;;;;;5.18;1.05;;;;;;;33.31;30.76;99901.47;4949827;28;20051;-87
2023/08/14 11:30:08;;;;;;;1.65;0.80;;;;;;;33.06;28.52;99897.75;4934285;29;20121;-84
2023/08/14 11:32:33;;;;;;;0.65;0.65;;;;;;;33.26;27.55;99871.91;4951207;29;20040;-85